Terminal Aerodrome Forecast
Issued by NWS Kansas City/Pleasant Hill, MO

Home | Current Version | Previous Version | Text Only | Print | Product List | Glossary On
Versions: 1 2 3 4 5 6 7 8 9 10 11 12 13 14 15 16 17 18 19 20 21 22
000
FTUS43 KEAX 181120
TAFMCI
TAF
KMCI 181120Z 1812/1912 08008KT 2SM BR OVC005
      TEMPO 1812/1814 1/4SM FG BKN003
     FM181500 14006KT 5SM BR OVC010
     FM181800 15008KT 6SM -RA VCTS SCT010CB BKN015
      TEMPO 1818/1822 3SM -TSRA OVC010CB
     FM182200 17008KT P6SM BKN035=

USA.gov is the U.S. government's official web portal to all federal, state and local government web resources and services.